createdAt,value
2019-05-12T00:02:28.727Z,7.58
2019-05-12T00:07:38.166Z,6.60
2019-05-12T00:12:51.839Z,6.53
2019-05-12T00:17:58.734Z,6.28
2019-05-12T00:23:23.234Z,7.03
2019-05-12T00:28:15.069Z,6.58
2019-05-12T00:33:20.904Z,6.03
2019-05-12T00:38:27.794Z,7.22
2019-05-12T00:43:34.539Z,6.20
2019-05-12T00:48:40.400Z,7.15
2019-05-12T00:53:47.916Z,6.30
2019-05-12T00:58:53.659Z,6.25
2019-05-12T01:04:00.439Z,6.30
2019-05-12T01:09:08.740Z,6.40
2019-05-12T01:14:14.359Z,6.17
2019-05-12T01:19:20.450Z,6.60
2019-05-12T01:24:28.222Z,6.35
2019-05-12T01:29:34.196Z,7.00
2019-05-12T01:34:40.624Z,6.10
2019-05-12T01:39:48.972Z,6.40
2019-05-12T01:44:54.484Z,5.67
2019-05-12T01:50:03.723Z,5.78
2019-05-12T01:55:09.499Z,5.33
2019-05-12T02:00:18.299Z,5.22
2019-05-12T02:05:27.710Z,5.97
2019-05-12T02:10:32.650Z,6.45
2019-05-12T02:15:38.588Z,6.33
2019-05-12T02:20:45.379Z,5.90
2019-05-12T02:25:51.300Z,5.70
2019-05-12T02:30:59.014Z,5.60
2019-05-12T02:36:05.396Z,5.15
2019-05-12T02:41:11.393Z,5.90
2019-05-12T02:46:17.269Z,6.35
2019-05-12T02:51:24.809Z,5.90
2019-05-12T02:56:31.471Z,5.53
2019-05-12T03:01:37.501Z,5.28
2019-05-12T03:06:44.617Z,5.50
2019-05-12T03:11:51.070Z,5.40
2019-05-12T03:16:57.649Z,5.42
2019-05-12T03:22:05.096Z,5.37
2019-05-12T03:27:17.169Z,4.90
2019-05-12T03:32:19.550Z,5.55
2019-05-12T03:37:30.691Z,5.05
2019-05-12T03:42:35.462Z,5.35
2019-05-12T03:47:45.174Z,5.15
2019-05-12T03:52:49.280Z,5.30
2019-05-12T03:57:55.519Z,4.90
2019-05-12T04:03:04.774Z,5.17
2019-05-12T04:08:09.510Z,5.33
2019-05-12T04:13:16.831Z,5.00
2019-05-12T04:18:24.758Z,5.00
2019-05-12T04:23:34.642Z,4.80
2019-05-12T04:28:39.356Z,4.50
2019-05-12T04:33:45.467Z,5.03
2019-05-12T04:38:51.609Z,5.12
2019-05-12T04:43:59.301Z,5.00
2019-05-12T04:49:05.778Z,4.95
2019-05-12T04:54:15.219Z,4.67
2019-05-12T04:59:21.000Z,4.50
2019-05-12T05:04:27.279Z,4.80
2019-05-12T05:09:34.988Z,5.10
2019-05-12T05:14:44.587Z,5.20
2019-05-12T05:19:50.038Z,4.78
2019-05-12T05:24:56.239Z,4.53
2019-05-12T05:30:04.029Z,3.45
2019-05-12T05:35:11.002Z,4.37
2019-05-12T05:40:19.794Z,6.70
2019-05-12T05:45:26.480Z,5.15
2019-05-12T05:50:34.318Z,4.80
2019-05-12T05:55:39.668Z,4.58
2019-05-12T06:00:45.869Z,4.95
2019-05-12T06:05:53.447Z,4.10
2019-05-12T06:11:00.049Z,3.98
2019-05-12T06:16:11.760Z,3.10
2019-05-12T06:21:13.895Z,3.35
2019-05-12T06:26:21.114Z,3.17
2019-05-12T06:31:29.883Z,3.50
2019-05-12T06:36:36.157Z,2.80
2019-05-12T06:41:44.236Z,2.85
2019-05-12T06:46:53.455Z,2.80
2019-05-12T06:52:01.563Z,2.85
2019-05-12T06:57:21.460Z,2.60
2019-05-12T07:02:16.291Z,3.50
2019-05-12T07:07:25.548Z,2.70
2019-05-12T07:12:33.606Z,2.60
2019-05-12T07:18:00.020Z,2.37
2019-05-12T07:23:05.820Z,2.62
2019-05-12T07:28:14.232Z,2.80
2019-05-12T07:33:20.010Z,2.22
2019-05-12T07:38:26.049Z,2.08
2019-05-12T07:43:33.785Z,2.20
2019-05-12T07:48:45.825Z,2.90
2019-05-12T07:53:55.433Z,2.00
2019-05-12T07:58:57.170Z,1.75
2019-05-12T08:04:04.588Z,2.37
2019-05-12T08:09:10.879Z,1.90
2019-05-12T08:14:25.928Z,2.12
2019-05-12T08:19:28.893Z,1.70
2019-05-12T08:24:42.731Z,2.00
2019-05-12T08:29:43.362Z,1.92
2019-05-12T08:34:50.028Z,1.75
2019-05-12T08:40:03.475Z,2.00
2019-05-12T08:45:07.982Z,2.35
2019-05-12T08:50:13.773Z,2.00
2019-05-12T08:55:22.738Z,1.90
2019-05-12T09:00:39.443Z,1.55
2019-05-12T09:05:45.464Z,1.70
2019-05-12T09:10:55.362Z,2.37
2019-05-12T09:16:00.732Z,1.90
2019-05-12T09:21:07.370Z,1.70
2019-05-12T09:26:18.639Z,1.82
2019-05-12T09:31:25.385Z,1.50
2019-05-12T09:36:33.604Z,1.80
2019-05-12T09:41:42.495Z,1.90
2019-05-12T09:46:46.489Z,1.52
2019-05-12T09:51:54.415Z,1.87
2019-05-12T09:57:01.090Z,1.90
2019-05-12T10:02:10.536Z,1.15
2019-05-12T10:07:14.890Z,1.42
2019-05-12T10:12:22.329Z,1.40
2019-05-12T10:17:30.177Z,1.60
2019-05-12T10:22:40.102Z,1.55
2019-05-12T10:27:44.481Z,1.70
2019-05-12T10:32:50.709Z,1.70
2019-05-12T10:38:00.247Z,1.47
2019-05-12T10:43:04.868Z,2.08
2019-05-12T10:48:13.931Z,1.65
2019-05-12T10:53:19.049Z,1.62
2019-05-12T10:58:26.060Z,1.47
2019-05-12T11:03:33.746Z,1.27
2019-05-12T11:08:41.262Z,1.65
2019-05-12T11:13:49.931Z,1.45
2019-05-12T11:19:00.148Z,1.45
2019-05-12T11:24:03.851Z,1.50
2019-05-12T11:29:09.900Z,1.55
2019-05-12T11:34:16.569Z,1.30
2019-05-12T11:39:23.604Z,1.27
2019-05-12T11:44:30.099Z,1.32
2019-05-12T11:49:35.759Z,1.40
2019-05-12T11:54:47.117Z,1.37
2019-05-12T12:00:00.942Z,1.27
2019-05-12T12:04:57.760Z,1.25
2019-05-12T12:10:03.988Z,1.30
2019-05-12T12:15:10.319Z,1.20
2019-05-12T12:20:22.708Z,1.20
2019-05-12T12:25:30.343Z,1.15
2019-05-12T12:30:36.518Z,1.20
2019-05-12T12:35:44.446Z,1.40
2019-05-12T12:40:50.800Z,1.20
2019-05-12T12:46:05.188Z,1.00
2019-05-12T12:51:11.240Z,1.30
2019-05-12T12:56:27.724Z,1.05
2019-05-12T13:01:28.688Z,1.05
2019-05-12T13:06:34.397Z,1.10
2019-05-12T13:11:39.420Z,1.10
2019-05-12T13:16:49.312Z,1.20
2019-05-12T13:21:53.224Z,1.10
2019-05-12T13:26:59.930Z,1.47
2019-05-12T13:32:06.220Z,1.27
2019-05-12T13:37:18.002Z,1.10
2019-05-12T13:42:19.839Z,1.17
2019-05-12T13:47:29.118Z,1.20
2019-05-12T13:52:34.311Z,1.10
2019-05-12T13:57:43.944Z,1.30
2019-05-12T14:02:49.021Z,0.88
2019-05-12T14:07:57.051Z,1.02
2019-05-12T14:13:03.478Z,1.00
2019-05-12T14:18:10.379Z,1.20
2019-05-12T14:23:17.319Z,1.50
2019-05-12T14:28:25.529Z,1.40
2019-05-12T14:33:37.469Z,1.40
2019-05-12T14:38:39.700Z,1.50
2019-05-12T14:43:47.867Z,1.95
2019-05-12T14:48:54.337Z,2.10
2019-05-12T14:54:00.930Z,1.70
2019-05-12T14:59:07.119Z,1.92
2019-05-12T15:04:13.749Z,1.77
2019-05-12T15:09:21.769Z,1.95
2019-05-12T15:14:32.672Z,2.00
2019-05-12T15:19:36.329Z,2.22
2019-05-12T15:24:44.154Z,2.05
2019-05-12T15:29:56.369Z,1.90
2019-05-12T15:34:59.569Z,1.90
2019-05-12T15:40:06.341Z,1.67
2019-05-12T15:45:16.216Z,1.60
2019-05-12T15:50:20.178Z,1.57
2019-05-12T15:55:32.847Z,1.72
2019-05-12T16:00:38.323Z,1.80
2019-05-12T16:05:44.490Z,1.70
2019-05-12T16:10:51.139Z,1.80
2019-05-12T16:16:03.148Z,1.27
2019-05-12T16:21:09.162Z,1.67
2019-05-12T16:26:15.261Z,2.15
2019-05-12T16:31:20.060Z,1.57
2019-05-12T16:36:27.131Z,2.12
2019-05-12T16:41:34.469Z,1.47
2019-05-12T16:46:41.348Z,1.70
2019-05-12T16:51:48.669Z,1.60
2019-05-12T16:57:00.221Z,1.50
2019-05-12T17:02:09.765Z,1.30
2019-05-12T17:07:17.066Z,1.17
2019-05-12T17:12:24.851Z,1.45
2019-05-12T17:17:30.050Z,1.42
2019-05-12T17:22:37.490Z,1.55
2019-05-12T17:27:44.751Z,1.67
2019-05-12T17:33:00.715Z,1.50
2019-05-12T17:37:59.719Z,1.60
2019-05-12T17:43:11.793Z,1.55
2019-05-12T17:48:14.454Z,1.98
2019-05-12T17:53:20.849Z,1.40
2019-05-12T17:58:29.766Z,3.42
2019-05-12T18:03:39.387Z,2.90
2019-05-12T18:08:45.069Z,2.45
2019-05-12T18:14:01.115Z,2.90
2019-05-12T18:18:59.070Z,2.42
2019-05-12T18:24:11.018Z,3.58
2019-05-12T18:29:14.650Z,2.75
2019-05-12T18:34:20.199Z,2.50
2019-05-12T18:39:27.543Z,2.60
2019-05-12T18:44:33.361Z,2.50
2019-05-12T18:49:41.985Z,2.55
2019-05-12T18:54:52.143Z,2.10
2019-05-12T19:00:01.573Z,2.77
2019-05-12T19:05:04.449Z,3.70
2019-05-12T19:10:16.388Z,3.12
2019-05-12T19:15:23.971Z,3.98
2019-05-12T19:20:31.262Z,4.05
2019-05-12T19:25:40.865Z,3.65
2019-05-12T19:30:50.242Z,3.87
2019-05-12T19:36:04.440Z,3.77
2019-05-12T19:41:04.633Z,3.92
2019-05-12T19:46:10.893Z,4.10
2019-05-12T19:51:24.544Z,3.80
2019-05-12T19:56:30.549Z,3.87
2019-05-12T20:01:34.496Z,4.00
2019-05-12T20:06:40.801Z,3.27
2019-05-12T20:11:46.889Z,3.47
2019-05-12T20:16:54.466Z,3.20
2019-05-12T20:22:03.364Z,3.85
2019-05-12T20:27:15.543Z,3.27
2019-05-12T20:32:17.980Z,3.67
2019-05-12T20:37:23.645Z,2.90
2019-05-12T20:42:34.057Z,3.62
2019-05-12T20:47:39.103Z,3.33
2019-05-12T20:52:48.891Z,3.60
2019-05-12T20:57:56.587Z,3.27
2019-05-12T21:03:01.320Z,2.58
2019-05-12T21:08:11.833Z,3.02
2019-05-12T21:13:15.072Z,2.83
2019-05-12T21:18:23.796Z,2.50
2019-05-12T21:23:30.110Z,2.60
2019-05-12T21:28:37.134Z,2.90
2019-05-12T21:33:44.160Z,3.42
2019-05-12T21:38:53.990Z,3.00
2019-05-12T21:43:59.984Z,3.20
2019-05-12T21:49:10.707Z,2.70
2019-05-12T21:54:15.229Z,3.45
2019-05-12T21:59:20.829Z,2.90
2019-05-12T22:04:27.109Z,3.35
2019-05-12T22:09:41.638Z,3.00
2019-05-12T22:14:43.699Z,2.70
2019-05-12T22:19:49.382Z,2.55
2019-05-12T22:24:55.600Z,2.50
2019-05-12T22:30:04.259Z,2.92
2019-05-12T22:35:13.262Z,2.42
2019-05-12T22:40:19.369Z,2.62
2019-05-12T22:45:25.637Z,2.70
2019-05-12T22:50:34.936Z,1.90
2019-05-12T22:55:40.435Z,2.47
2019-05-12T23:00:51.205Z,2.30
2019-05-12T23:05:59.567Z,2.30
2019-05-12T23:11:03.849Z,2.08
2019-05-12T23:16:10.666Z,1.80
2019-05-12T23:21:17.687Z,2.50
2019-05-12T23:26:24.615Z,1.95
2019-05-12T23:31:30.507Z,1.70
2019-05-12T23:36:39.086Z,2.08
2019-05-12T23:41:44.422Z,1.77
2019-05-12T23:46:50.830Z,1.60
2019-05-12T23:51:57.410Z,1.77
2019-05-12T23:57:03.922Z,1.67
